sensor_id;sensor_type;location;lat;lon;timestamp;temperature;humidity
37412;DHT22;23278;52.110;6.050;2023-02-03T00:01:09;9.10;99.90
37412;DHT22;23278;52.110;6.050;2023-02-03T00:03:35;9.10;99.90
37412;DHT22;23278;52.110;6.050;2023-02-03T00:06:02;9.10;99.90
37412;DHT22;23278;52.110;6.050;2023-02-03T00:08:29;9.20;99.90
37412;DHT22;23278;52.110;6.050;2023-02-03T00:10:55;9.20;99.90
37412;DHT22;23278;52.110;6.050;2023-02-03T00:13:21;9.20;99.90
37412;DHT22;23278;52.110;6.050;2023-02-03T00:15:47;9.20;99.90
37412;DHT22;23278;52.110;6.050;2023-02-03T00:18:13;9.20;99.90
37412;DHT22;23278;52.110;6.050;2023-02-03T00:20:39;9.20;99.90
37412;DHT22;23278;52.110;6.050;2023-02-03T00:23:07;9.20;99.90
37412;DHT22;23278;52.110;6.050;2023-02-03T00:25:33;9.20;99.90
37412;DHT22;23278;52.110;6.050;2023-02-03T00:27:59;9.20;99.90
37412;DHT22;23278;52.110;6.050;2023-02-03T00:30:25;9.30;99.90
37412;DHT22;23278;52.110;6.050;2023-02-03T00:32:51;9.30;99.90
37412;DHT22;23278;52.110;6.050;2023-02-03T00:35:17;9.20;99.90
37412;DHT22;23278;52.110;6.050;2023-02-03T00:37:43;9.30;99.90
37412;DHT22;23278;52.110;6.050;2023-02-03T00:40:09;9.30;99.90
37412;DHT22;23278;52.110;6.050;2023-02-03T00:42:35;9.30;99.90
37412;DHT22;23278;52.110;6.050;2023-02-03T00:45:02;9.30;99.90
37412;DHT22;23278;52.110;6.050;2023-02-03T00:47:27;9.30;99.90
37412;DHT22;23278;52.110;6.050;2023-02-03T00:49:53;9.40;99.90
37412;DHT22;23278;52.110;6.050;2023-02-03T00:52:19;9.40;99.90
37412;DHT22;23278;52.110;6.050;2023-02-03T00:54:45;9.30;99.90
37412;DHT22;23278;52.110;6.050;2023-02-03T00:57:11;9.30;99.90
37412;DHT22;23278;52.110;6.050;2023-02-03T00:59:38;9.30;99.90
37412;DHT22;23278;52.110;6.050;2023-02-03T01:02:04;9.30;99.90
37412;DHT22;23278;52.110;6.050;2023-02-03T01:04:29;9.30;99.90
37412;DHT22;23278;52.110;6.050;2023-02-03T01:06:55;9.30;99.90
37412;DHT22;23278;52.110;6.050;2023-02-03T01:09:23;9.40;99.90
37412;DHT22;23278;52.110;6.050;2023-02-03T01:11:49;9.40;99.90
37412;DHT22;23278;52.110;6.050;2023-02-03T01:14:15;9.40;99.90
37412;DHT22;23278;52.110;6.050;2023-02-03T01:16:41;9.30;99.90
37412;DHT22;23278;52.110;6.050;2023-02-03T01:19:07;9.30;99.90
37412;DHT22;23278;52.110;6.050;2023-02-03T01:21:33;9.40;99.90
37412;DHT22;23278;52.110;6.050;2023-02-03T01:24:01;9.30;99.90
37412;DHT22;23278;52.110;6.050;2023-02-03T01:26:27;9.30;99.90
37412;DHT22;23278;52.110;6.050;2023-02-03T01:28:58;9.30;99.90
37412;DHT22;23278;52.110;6.050;2023-02-03T01:31:31;9.30;99.90
37412;DHT22;23278;52.110;6.050;2023-02-03T01:34:00;9.30;99.90
37412;DHT22;23278;52.110;6.050;2023-02-03T01:36:29;9.30;99.90
37412;DHT22;23278;52.110;6.050;2023-02-03T01:38:55;9.30;99.90
37412;DHT22;23278;52.110;6.050;2023-02-03T01:41:27;9.30;99.90
37412;DHT22;23278;52.110;6.050;2023-02-03T01:43:55;9.30;99.90
37412;DHT22;23278;52.110;6.050;2023-02-03T01:46:34;9.30;99.90
37412;DHT22;23278;52.110;6.050;2023-02-03T01:49:11;9.30;99.90
37412;DHT22;23278;52.110;6.050;2023-02-03T01:51:39;9.30;99.90
37412;DHT22;23278;52.110;6.050;2023-02-03T01:54:10;9.30;99.90
37412;DHT22;23278;52.110;6.050;2023-02-03T01:56:41;9.30;99.90
37412;DHT22;23278;52.110;6.050;2023-02-03T01:59:12;9.30;99.90
37412;DHT22;23278;52.110;6.050;2023-02-03T02:01:40;9.30;99.90
37412;DHT22;23278;52.110;6.050;2023-02-03T02:04:07;9.30;99.90
37412;DHT22;23278;52.110;6.050;2023-02-03T02:06:33;9.30;99.90
37412;DHT22;23278;52.110;6.050;2023-02-03T02:09:00;9.30;99.90
37412;DHT22;23278;52.110;6.050;2023-02-03T02:11:28;9.30;99.90
37412;DHT22;23278;52.110;6.050;2023-02-03T02:13:57;9.30;99.90
37412;DHT22;23278;52.110;6.050;2023-02-03T02:22:09;9.30;99.90
37412;DHT22;23278;52.110;6.050;2023-02-03T02:35:18;9.30;99.90
37412;DHT22;23278;52.110;6.050;2023-02-03T02:38:32;9.30;99.90
37412;DHT22;23278;52.110;6.050;2023-02-03T02:44:43;9.30;99.90
37412;DHT22;23278;52.110;6.050;2023-02-03T02:47:18;9.20;99.90
37412;DHT22;23278;52.110;6.050;2023-02-03T02:49:53;9.20;99.90
37412;DHT22;23278;52.110;6.050;2023-02-03T02:52:22;9.30;99.90
37412;DHT22;23278;52.110;6.050;2023-02-03T02:54:54;9.20;99.90
37412;DHT22;23278;52.110;6.050;2023-02-03T02:57:25;9.20;99.90
37412;DHT22;23278;52.110;6.050;2023-02-03T02:59:52;9.20;99.90
37412;DHT22;23278;52.110;6.050;2023-02-03T03:02:19;9.20;99.90
37412;DHT22;23278;52.110;6.050;2023-02-03T03:04:47;9.20;99.90
37412;DHT22;23278;52.110;6.050;2023-02-03T03:07:18;9.20;99.90
37412;DHT22;23278;52.110;6.050;2023-02-03T03:09:52;9.20;99.90
37412;DHT22;23278;52.110;6.050;2023-02-03T03:12:30;9.30;99.90
37412;DHT22;23278;52.110;6.050;2023-02-03T03:15:00;9.30;99.90
37412;DHT22;23278;52.110;6.050;2023-02-03T03:17:34;9.30;99.90
37412;DHT22;23278;52.110;6.050;2023-02-03T03:20:08;9.30;99.90
37412;DHT22;23278;52.110;6.050;2023-02-03T03:22:40;9.30;99.90
37412;DHT22;23278;52.110;6.050;2023-02-03T03:25:13;9.30;99.90
37412;DHT22;23278;52.110;6.050;2023-02-03T03:27:45;9.30;99.90
37412;DHT22;23278;52.110;6.050;2023-02-03T03:32:48;9.30;99.90
37412;DHT22;23278;52.110;6.050;2023-02-03T03:35:15;9.30;99.90
37412;DHT22;23278;52.110;6.050;2023-02-03T03:37:44;9.30;99.90
37412;DHT22;23278;52.110;6.050;2023-02-03T03:40:24;9.30;99.90
37412;DHT22;23278;52.110;6.050;2023-02-03T03:43:02;9.30;99.90
37412;DHT22;23278;52.110;6.050;2023-02-03T03:45:38;9.30;99.90
37412;DHT22;23278;52.110;6.050;2023-02-03T03:48:16;9.30;99.90
37412;DHT22;23278;52.110;6.050;2023-02-03T03:53:35;9.30;99.90
37412;DHT22;23278;52.110;6.050;2023-02-03T03:56:06;9.40;99.90
37412;DHT22;23278;52.110;6.050;2023-02-03T03:58:36;9.30;99.90
37412;DHT22;23278;52.110;6.050;2023-02-03T04:01:06;9.40;99.90
37412;DHT22;23278;52.110;6.050;2023-02-03T04:03:38;9.40;99.90
37412;DHT22;23278;52.110;6.050;2023-02-03T04:06:06;9.30;99.90
37412;DHT22;23278;52.110;6.050;2023-02-03T04:08:31;9.30;99.90
37412;DHT22;23278;52.110;6.050;2023-02-03T04:10:57;9.40;99.90
37412;DHT22;23278;52.110;6.050;2023-02-03T04:13:23;9.30;99.90
37412;DHT22;23278;52.110;6.050;2023-02-03T04:15:49;9.40;99.90
37412;DHT22;23278;52.110;6.050;2023-02-03T04:18:15;9.40;99.90
37412;DHT22;23278;52.110;6.050;2023-02-03T04:20:42;9.40;99.90
37412;DHT22;23278;52.110;6.050;2023-02-03T04:23:08;9.40;99.90
37412;DHT22;23278;52.110;6.050;2023-02-03T04:25:34;9.40;99.90
37412;DHT22;23278;52.110;6.050;2023-02-03T04:28:00;9.40;99.90
37412;DHT22;23278;52.110;6.050;2023-02-03T04:30:26;9.40;99.90
37412;DHT22;23278;52.110;6.050;2023-02-03T04:32:52;9.40;99.90
37412;DHT22;23278;52.110;6.050;2023-02-03T04:35:18;9.40;99.90
37412;DHT22;23278;52.110;6.050;2023-02-03T04:37:45;9.40;99.90
37412;DHT22;23278;52.110;6.050;2023-02-03T04:40:11;9.40;99.90
37412;DHT22;23278;52.110;6.050;2023-02-03T04:42:38;9.40;99.90
37412;DHT22;23278;52.110;6.050;2023-02-03T04:45:06;9.40;99.90
37412;DHT22;23278;52.110;6.050;2023-02-03T04:47:32;9.40;99.90
37412;DHT22;23278;52.110;6.050;2023-02-03T04:49:58;9.50;99.90
37412;DHT22;23278;52.110;6.050;2023-02-03T04:52:25;9.50;99.90
37412;DHT22;23278;52.110;6.050;2023-02-03T04:54:51;9.50;99.90
37412;DHT22;23278;52.110;6.050;2023-02-03T04:57:17;9.50;99.90
37412;DHT22;23278;52.110;6.050;2023-02-03T04:59:42;9.50;99.90
37412;DHT22;23278;52.110;6.050;2023-02-03T05:02:08;9.50;99.90
37412;DHT22;23278;52.110;6.050;2023-02-03T05:04:34;9.50;99.90
37412;DHT22;23278;52.110;6.050;2023-02-03T05:07:00;9.50;99.90
37412;DHT22;23278;52.110;6.050;2023-02-03T05:09:27;9.50;99.90
37412;DHT22;23278;52.110;6.050;2023-02-03T05:11:53;9.50;99.90
37412;DHT22;23278;52.110;6.050;2023-02-03T05:14:19;9.60;99.90
37412;DHT22;23278;52.110;6.050;2023-02-03T05:16:46;9.60;99.90
37412;DHT22;23278;52.110;6.050;2023-02-03T05:19:12;9.60;99.90
37412;DHT22;23278;52.110;6.050;2023-02-03T05:21:37;9.60;99.90
37412;DHT22;23278;52.110;6.050;2023-02-03T05:24:04;9.60;99.90
37412;DHT22;23278;52.110;6.050;2023-02-03T05:26:33;9.60;99.90
37412;DHT22;23278;52.110;6.050;2023-02-03T05:28:59;9.60;99.90
37412;DHT22;23278;52.110;6.050;2023-02-03T05:31:25;9.70;99.90
37412;DHT22;23278;52.110;6.050;2023-02-03T05:33:51;9.70;99.90
37412;DHT22;23278;52.110;6.050;2023-02-03T05:36:17;9.70;99.90
37412;DHT22;23278;52.110;6.050;2023-02-03T05:38:43;9.70;99.90
37412;DHT22;23278;52.110;6.050;2023-02-03T05:41:12;9.70;99.90
37412;DHT22;23278;52.110;6.050;2023-02-03T05:44:04;9.70;99.90
37412;DHT22;23278;52.110;6.050;2023-02-03T05:46:30;9.70;99.90
37412;DHT22;23278;52.110;6.050;2023-02-03T05:48:56;9.80;99.90
37412;DHT22;23278;52.110;6.050;2023-02-03T05:51:22;9.80;99.90
37412;DHT22;23278;52.110;6.050;2023-02-03T05:53:48;9.80;99.90
37412;DHT22;23278;52.110;6.050;2023-02-03T05:56:13;9.80;99.90
37412;DHT22;23278;52.110;6.050;2023-02-03T05:58:39;9.80;99.90
37412;DHT22;23278;52.110;6.050;2023-02-03T06:01:05;9.80;99.90
37412;DHT22;23278;52.110;6.050;2023-02-03T06:03:31;9.80;99.90
37412;DHT22;23278;52.110;6.050;2023-02-03T06:05:57;9.90;99.90
37412;DHT22;23278;52.110;6.050;2023-02-03T06:08:23;9.80;99.90
37412;DHT22;23278;52.110;6.050;2023-02-03T06:10:57;9.90;99.90
37412;DHT22;23278;52.110;6.050;2023-02-03T06:13:24;9.90;99.90
37412;DHT22;23278;52.110;6.050;2023-02-03T06:15:50;9.90;99.90
37412;DHT22;23278;52.110;6.050;2023-02-03T06:18:15;9.90;99.90
37412;DHT22;23278;52.110;6.050;2023-02-03T06:20:41;9.90;99.90
37412;DHT22;23278;52.110;6.050;2023-02-03T06:23:07;9.90;99.90
37412;DHT22;23278;52.110;6.050;2023-02-03T06:25:33;9.90;99.90
37412;DHT22;23278;52.110;6.050;2023-02-03T06:27:59;9.90;99.90
37412;DHT22;23278;52.110;6.050;2023-02-03T06:30:25;9.90;99.90
37412;DHT22;23278;52.110;6.050;2023-02-03T06:32:51;10.00;99.90
37412;DHT22;23278;52.110;6.050;2023-02-03T06:35:17;10.00;99.90
37412;DHT22;23278;52.110;6.050;2023-02-03T06:37:43;10.00;99.90
37412;DHT22;23278;52.110;6.050;2023-02-03T06:40:10;10.00;99.90
37412;DHT22;23278;52.110;6.050;2023-02-03T06:42:36;10.00;99.90
37412;DHT22;23278;52.110;6.050;2023-02-03T06:45:05;10.00;99.90
37412;DHT22;23278;52.110;6.050;2023-02-03T06:47:31;10.00;99.90
37412;DHT22;23278;52.110;6.050;2023-02-03T06:49:57;10.00;99.90
37412;DHT22;23278;52.110;6.050;2023-02-03T06:52:23;10.10;99.90
37412;DHT22;23278;52.110;6.050;2023-02-03T06:54:49;10.10;99.90
37412;DHT22;23278;52.110;6.050;2023-02-03T06:57:15;10.10;99.90
37412;DHT22;23278;52.110;6.050;2023-02-03T06:59:41;10.10;99.90
37412;DHT22;23278;52.110;6.050;2023-02-03T07:02:08;10.10;99.90
37412;DHT22;23278;52.110;6.050;2023-02-03T07:04:34;10.10;99.90
37412;DHT22;23278;52.110;6.050;2023-02-03T07:06:59;10.10;99.90
37412;DHT22;23278;52.110;6.050;2023-02-03T07:09:25;10.20;99.90
37412;DHT22;23278;52.110;6.050;2023-02-03T07:11:54;10.20;99.90
37412;DHT22;23278;52.110;6.050;2023-02-03T07:14:20;10.20;99.90
37412;DHT22;23278;52.110;6.050;2023-02-03T07:16:46;10.20;99.90
37412;DHT22;23278;52.110;6.050;2023-02-03T07:19:12;10.20;99.90
37412;DHT22;23278;52.110;6.050;2023-02-03T07:21:38;10.20;99.90
37412;DHT22;23278;52.110;6.050;2023-02-03T07:24:04;10.20;99.90
37412;DHT22;23278;52.110;6.050;2023-02-03T07:26:29;10.30;99.90
37412;DHT22;23278;52.110;6.050;2023-02-03T07:28:57;10.20;99.90
37412;DHT22;23278;52.110;6.050;2023-02-03T07:31:28;10.30;99.90
37412;DHT22;23278;52.110;6.050;2023-02-03T07:33:53;10.30;99.90
37412;DHT22;23278;52.110;6.050;2023-02-03T07:36:22;10.30;99.90
37412;DHT22;23278;52.110;6.050;2023-02-03T07:38:49;10.30;99.90
37412;DHT22;23278;52.110;6.050;2023-02-03T07:41:15;10.30;99.90
37412;DHT22;23278;52.110;6.050;2023-02-03T07:43:41;10.30;99.90
37412;DHT22;23278;52.110;6.050;2023-02-03T07:46:07;10.30;99.90
37412;DHT22;23278;52.110;6.050;2023-02-03T07:48:33;10.30;99.90
37412;DHT22;23278;52.110;6.050;2023-02-03T07:50:59;10.30;99.90
37412;DHT22;23278;52.110;6.050;2023-02-03T07:53:25;10.40;99.90
37412;DHT22;23278;52.110;6.050;2023-02-03T07:55:51;10.40;99.90
37412;DHT22;23278;52.110;6.050;2023-02-03T07:58:16;10.30;99.90
37412;DHT22;23278;52.110;6.050;2023-02-03T08:00:48;10.30;99.90
37412;DHT22;23278;52.110;6.050;2023-02-03T08:03:14;10.30;99.90
37412;DHT22;23278;52.110;6.050;2023-02-03T08:05:40;10.40;99.90
37412;DHT22;23278;52.110;6.050;2023-02-03T08:08:06;10.40;99.90
37412;DHT22;23278;52.110;6.050;2023-02-03T08:10:32;10.40;99.90
37412;DHT22;23278;52.110;6.050;2023-02-03T08:12:58;10.40;99.90
37412;DHT22;23278;52.110;6.050;2023-02-03T08:15:23;10.40;99.90
37412;DHT22;23278;52.110;6.050;2023-02-03T08:17:50;10.40;99.90
37412;DHT22;23278;52.110;6.050;2023-02-03T08:20:16;10.50;99.90
37412;DHT22;23278;52.110;6.050;2023-02-03T08:22:43;10.50;99.90
37412;DHT22;23278;52.110;6.050;2023-02-03T08:25:11;10.50;99.90
37412;DHT22;23278;52.110;6.050;2023-02-03T08:27:38;10.50;99.90
37412;DHT22;23278;52.110;6.050;2023-02-03T08:30:06;10.50;99.90
37412;DHT22;23278;52.110;6.050;2023-02-03T08:32:37;10.60;99.90
37412;DHT22;23278;52.110;6.050;2023-02-03T08:35:03;10.50;99.90
37412;DHT22;23278;52.110;6.050;2023-02-03T08:37:29;10.60;99.90
37412;DHT22;23278;52.110;6.050;2023-02-03T08:39:57;10.60;99.90
37412;DHT22;23278;52.110;6.050;2023-02-03T08:42:23;10.60;99.90
37412;DHT22;23278;52.110;6.050;2023-02-03T08:44:49;10.60;99.90
37412;DHT22;23278;52.110;6.050;2023-02-03T08:47:15;10.60;99.90
37412;DHT22;23278;52.110;6.050;2023-02-03T08:49:41;10.60;99.90
37412;DHT22;23278;52.110;6.050;2023-02-03T08:52:10;10.70;99.90
37412;DHT22;23278;52.110;6.050;2023-02-03T08:54:36;10.60;99.90
37412;DHT22;23278;52.110;6.050;2023-02-03T08:57:03;10.70;99.90
37412;DHT22;23278;52.110;6.050;2023-02-03T08:59:28;10.70;99.90
37412;DHT22;23278;52.110;6.050;2023-02-03T09:01:55;10.70;99.90
37412;DHT22;23278;52.110;6.050;2023-02-03T09:04:24;10.70;99.90
37412;DHT22;23278;52.110;6.050;2023-02-03T09:06:51;10.80;99.90
37412;DHT22;23278;52.110;6.050;2023-02-03T09:09:19;10.80;99.90
37412;DHT22;23278;52.110;6.050;2023-02-03T09:11:45;10.80;99.90
37412;DHT22;23278;52.110;6.050;2023-02-03T09:14:11;10.90;99.90
37412;DHT22;23278;52.110;6.050;2023-02-03T09:16:38;10.90;99.90
37412;DHT22;23278;52.110;6.050;2023-02-03T09:19:04;11.00;99.90
37412;DHT22;23278;52.110;6.050;2023-02-03T09:21:29;11.00;99.90
37412;DHT22;23278;52.110;6.050;2023-02-03T09:23:59;11.00;99.90
37412;DHT22;23278;52.110;6.050;2023-02-03T09:26:26;11.00;99.90
37412;DHT22;23278;52.110;6.050;2023-02-03T09:28:51;11.00;99.90
37412;DHT22;23278;52.110;6.050;2023-02-03T09:31:17;11.10;99.90
37412;DHT22;23278;52.110;6.050;2023-02-03T09:33:45;11.10;99.90
37412;DHT22;23278;52.110;6.050;2023-02-03T09:36:11;11.20;99.90
37412;DHT22;23278;52.110;6.050;2023-02-03T09:38:38;11.20;99.90
37412;DHT22;23278;52.110;6.050;2023-02-03T09:43:38;11.20;99.90
37412;DHT22;23278;52.110;6.050;2023-02-03T09:46:11;11.10;99.90
37412;DHT22;23278;52.110;6.050;2023-02-03T09:48:43;11.20;99.90
37412;DHT22;23278;52.110;6.050;2023-02-03T09:54:02;11.20;99.90
37412;DHT22;23278;52.110;6.050;2023-02-03T09:56:33;11.20;99.90
37412;DHT22;23278;52.110;6.050;2023-02-03T09:59:00;11.20;99.90
37412;DHT22;23278;52.110;6.050;2023-02-03T10:01:35;11.20;99.90
37412;DHT22;23278;52.110;6.050;2023-02-03T10:04:23;11.30;99.90
37412;DHT22;23278;52.110;6.050;2023-02-03T10:07:02;11.30;99.90
37412;DHT22;23278;52.110;6.050;2023-02-03T10:18:10;11.40;99.90
37412;DHT22;23278;52.110;6.050;2023-02-03T10:20:50;11.40;99.90
37412;DHT22;23278;52.110;6.050;2023-02-03T10:23:23;11.40;99.90
37412;DHT22;23278;52.110;6.050;2023-02-03T10:25:53;11.50;99.90
37412;DHT22;23278;52.110;6.050;2023-02-03T10:28:31;11.50;99.90
37412;DHT22;23278;52.110;6.050;2023-02-03T10:31:02;11.50;99.90
37412;DHT22;23278;52.110;6.050;2023-02-03T10:33:35;11.50;99.90
37412;DHT22;23278;52.110;6.050;2023-02-03T10:36:18;11.50;99.90
37412;DHT22;23278;52.110;6.050;2023-02-03T10:41:17;11.50;99.90
37412;DHT22;23278;52.110;6.050;2023-02-03T10:43:45;11.40;99.90
37412;DHT22;23278;52.110;6.050;2023-02-03T10:46:23;11.40;99.90
37412;DHT22;23278;52.110;6.050;2023-02-03T10:48:51;11.40;99.90
37412;DHT22;23278;52.110;6.050;2023-02-03T10:51:24;11.40;99.90
37412;DHT22;23278;52.110;6.050;2023-02-03T10:53:51;11.40;99.90
37412;DHT22;23278;52.110;6.050;2023-02-03T10:56:33;11.40;99.90
37412;DHT22;23278;52.110;6.050;2023-02-03T10:59:05;11.40;99.90
37412;DHT22;23278;52.110;6.050;2023-02-03T11:01:41;11.30;99.90
37412;DHT22;23278;52.110;6.050;2023-02-03T11:04:27;11.30;99.90
37412;DHT22;23278;52.110;6.050;2023-02-03T11:06:56;11.30;99.90
37412;DHT22;23278;52.110;6.050;2023-02-03T11:09:40;11.30;99.90
37412;DHT22;23278;52.110;6.050;2023-02-03T11:12:13;11.30;99.90
37412;DHT22;23278;52.110;6.050;2023-02-03T11:14:42;11.30;99.90
37412;DHT22;23278;52.110;6.050;2023-02-03T11:17:23;11.40;99.90
37412;DHT22;23278;52.110;6.050;2023-02-03T11:19:53;11.40;99.90
37412;DHT22;23278;52.110;6.050;2023-02-03T11:22:31;11.40;99.90
37412;DHT22;23278;52.110;6.050;2023-02-03T11:24:59;11.40;99.90
37412;DHT22;23278;52.110;6.050;2023-02-03T11:27:29;11.40;99.90
37412;DHT22;23278;52.110;6.050;2023-02-03T11:30:19;11.40;99.90
37412;DHT22;23278;52.110;6.050;2023-02-03T11:32:49;11.50;99.90
37412;DHT22;23278;52.110;6.050;2023-02-03T11:35:23;11.50;99.90
37412;DHT22;23278;52.110;6.050;2023-02-03T11:37:52;11.50;99.90
37412;DHT22;23278;52.110;6.050;2023-02-03T11:40:27;11.40;99.90
37412;DHT22;23278;52.110;6.050;2023-02-03T11:48:34;11.40;99.90
37412;DHT22;23278;52.110;6.050;2023-02-03T12:26:41;11.00;99.90
37412;DHT22;23278;52.110;6.050;2023-02-03T12:29:20;11.00;99.90
37412;DHT22;23278;52.110;6.050;2023-02-03T12:35:29;11.00;99.90
37412;DHT22;23278;52.110;6.050;2023-02-03T12:37:54;10.90;99.90
37412;DHT22;23278;52.110;6.050;2023-02-03T12:40:39;10.90;99.90
37412;DHT22;23278;52.110;6.050;2023-02-03T12:43:20;10.90;99.90
37412;DHT22;23278;52.110;6.050;2023-02-03T12:45:56;10.80;99.90
37412;DHT22;23278;52.110;6.050;2023-02-03T12:48:28;10.90;99.90
37412;DHT22;23278;52.110;6.050;2023-02-03T12:51:01;10.90;99.90
37412;DHT22;23278;52.110;6.050;2023-02-03T12:53:32;10.90;99.90
37412;DHT22;23278;52.110;6.050;2023-02-03T12:56:08;11.00;99.90
37412;DHT22;23278;52.110;6.050;2023-02-03T13:02:00;11.10;99.90
37412;DHT22;23278;52.110;6.050;2023-02-03T13:04:40;11.10;99.90
37412;DHT22;23278;52.110;6.050;2023-02-03T13:07:29;11.20;99.90
37412;DHT22;23278;52.110;6.050;2023-02-03T13:10:08;11.20;99.90
37412;DHT22;23278;52.110;6.050;2023-02-03T13:12:42;11.30;99.90
37412;DHT22;23278;52.110;6.050;2023-02-03T13:20:34;11.30;99.90
37412;DHT22;23278;52.110;6.050;2023-02-03T13:23:07;11.20;99.90
37412;DHT22;23278;52.110;6.050;2023-02-03T13:34:04;11.20;99.90
37412;DHT22;23278;52.110;6.050;2023-02-03T13:42:43;11.10;99.90
37412;DHT22;23278;52.110;6.050;2023-02-03T13:45:22;11.10;99.90
37412;DHT22;23278;52.110;6.050;2023-02-03T13:47:51;11.10;99.90
37412;DHT22;23278;52.110;6.050;2023-02-03T13:50:27;11.10;99.90
37412;DHT22;23278;52.110;6.050;2023-02-03T13:52:59;11.10;99.90
37412;DHT22;23278;52.110;6.050;2023-02-03T13:55:29;11.10;99.90
37412;DHT22;23278;52.110;6.050;2023-02-03T13:57:58;11.10;99.90
37412;DHT22;23278;52.110;6.050;2023-02-03T14:06:04;11.20;99.90
37412;DHT22;23278;52.110;6.050;2023-02-03T14:16:37;11.30;99.90
37412;DHT22;23278;52.110;6.050;2023-02-03T14:19:07;11.30;99.90
37412;DHT22;23278;52.110;6.050;2023-02-03T14:21:53;11.30;99.90
37412;DHT22;23278;52.110;6.050;2023-02-03T14:24:20;11.40;99.90
37412;DHT22;23278;52.110;6.050;2023-02-03T14:26:52;11.50;99.90
37412;DHT22;23278;52.110;6.050;2023-02-03T14:29:34;11.60;99.90
37412;DHT22;23278;52.110;6.050;2023-02-03T14:32:06;11.60;99.90
37412;DHT22;23278;52.110;6.050;2023-02-03T14:45:53;11.40;99.90
37412;DHT22;23278;52.110;6.050;2023-02-03T14:57:08;11.20;99.90
37412;DHT22;23278;52.110;6.050;2023-02-03T15:00:05;11.20;99.90
37412;DHT22;23278;52.110;6.050;2023-02-03T15:05:41;11.10;99.90
37412;DHT22;23278;52.110;6.050;2023-02-03T15:10:55;11.00;99.90
37412;DHT22;23278;52.110;6.050;2023-02-03T15:13:26;10.90;99.90
37412;DHT22;23278;52.110;6.050;2023-02-03T15:15:55;10.90;99.90
37412;DHT22;23278;52.110;6.050;2023-02-03T15:20:54;10.90;99.90
37412;DHT22;23278;52.110;6.050;2023-02-03T15:23:29;10.80;99.90
37412;DHT22;23278;52.110;6.050;2023-02-03T15:26:00;10.80;99.90
37412;DHT22;23278;52.110;6.050;2023-02-03T15:28:28;10.80;99.90
37412;DHT22;23278;52.110;6.050;2023-02-03T15:31:15;10.80;99.90
37412;DHT22;23278;52.110;6.050;2023-02-03T15:33:43;10.70;99.90
37412;DHT22;23278;52.110;6.050;2023-02-03T15:36:25;10.70;99.90
37412;DHT22;23278;52.110;6.050;2023-02-03T15:39:06;10.70;99.90
37412;DHT22;23278;52.110;6.050;2023-02-03T15:41:38;10.60;99.90
37412;DHT22;23278;52.110;6.050;2023-02-03T15:44:11;10.60;99.90
37412;DHT22;23278;52.110;6.050;2023-02-03T15:46:41;10.50;99.90
37412;DHT22;23278;52.110;6.050;2023-02-03T15:49:12;10.50;99.90
37412;DHT22;23278;52.110;6.050;2023-02-03T15:51:43;10.50;99.90
37412;DHT22;23278;52.110;6.050;2023-02-03T15:54:19;10.40;99.90
37412;DHT22;23278;52.110;6.050;2023-02-03T15:57:01;10.40;99.90
37412;DHT22;23278;52.110;6.050;2023-02-03T15:59:39;10.40;99.90
37412;DHT22;23278;52.110;6.050;2023-02-03T16:04:52;10.30;99.90
37412;DHT22;23278;52.110;6.050;2023-02-03T16:07:28;10.30;99.90
37412;DHT22;23278;52.110;6.050;2023-02-03T16:09:55;10.20;99.90
37412;DHT22;23278;52.110;6.050;2023-02-03T16:12:29;10.20;99.90
37412;DHT22;23278;52.110;6.050;2023-02-03T16:15:03;10.20;99.90
37412;DHT22;23278;52.110;6.050;2023-02-03T16:17:36;10.10;99.90
37412;DHT22;23278;52.110;6.050;2023-02-03T16:20:27;10.10;99.90
37412;DHT22;23278;52.110;6.050;2023-02-03T16:23:29;10.00;99.90
37412;DHT22;23278;52.110;6.050;2023-02-03T16:26:17;10.00;99.90
37412;DHT22;23278;52.110;6.050;2023-02-03T16:28:54;9.90;99.90
37412;DHT22;23278;52.110;6.050;2023-02-03T16:31:43;9.90;99.90
37412;DHT22;23278;52.110;6.050;2023-02-03T16:34:29;9.80;99.90
37412;DHT22;23278;52.110;6.050;2023-02-03T16:37:26;9.80;99.90
37412;DHT22;23278;52.110;6.050;2023-02-03T16:40:13;9.70;99.90
37412;DHT22;23278;52.110;6.050;2023-02-03T16:43:01;9.70;99.90
37412;DHT22;23278;52.110;6.050;2023-02-03T16:45:52;9.60;99.90
37412;DHT22;23278;52.110;6.050;2023-02-03T16:48:36;9.60;99.90
37412;DHT22;23278;52.110;6.050;2023-02-03T16:51:21;9.60;99.90
37412;DHT22;23278;52.110;6.050;2023-02-03T16:53:47;9.50;99.90
37412;DHT22;23278;52.110;6.050;2023-02-03T16:56:13;9.50;99.90
37412;DHT22;23278;52.110;6.050;2023-02-03T16:58:39;9.40;99.90
37412;DHT22;23278;52.110;6.050;2023-02-03T17:01:06;9.40;99.90
37412;DHT22;23278;52.110;6.050;2023-02-03T17:03:35;9.30;99.90
37412;DHT22;23278;52.110;6.050;2023-02-03T17:06:11;9.20;99.90
37412;DHT22;23278;52.110;6.050;2023-02-03T17:08:41;9.10;99.90
37412;DHT22;23278;52.110;6.050;2023-02-03T17:11:15;9.20;99.90
37412;DHT22;23278;52.110;6.050;2023-02-03T17:13:43;9.20;99.90
37412;DHT22;23278;52.110;6.050;2023-02-03T17:16:18;9.10;99.90
37412;DHT22;23278;52.110;6.050;2023-02-03T17:18:45;9.10;99.90
37412;DHT22;23278;52.110;6.050;2023-02-03T17:21:23;9.10;99.90
37412;DHT22;23278;52.110;6.050;2023-02-03T17:23:48;9.10;99.90
37412;DHT22;23278;52.110;6.050;2023-02-03T17:26:15;9.10;99.90
37412;DHT22;23278;52.110;6.050;2023-02-03T17:28:41;9.00;99.90
37412;DHT22;23278;52.110;6.050;2023-02-03T17:31:12;9.00;99.90
37412;DHT22;23278;52.110;6.050;2023-02-03T17:33:39;8.90;99.90
37412;DHT22;23278;52.110;6.050;2023-02-03T17:36:16;8.90;99.90
37412;DHT22;23278;52.110;6.050;2023-02-03T17:38:53;8.80;99.90
37412;DHT22;23278;52.110;6.050;2023-02-03T17:41:23;8.70;99.90
37412;DHT22;23278;52.110;6.050;2023-02-03T17:43:50;8.70;99.90
37412;DHT22;23278;52.110;6.050;2023-02-03T17:46:22;8.60;99.90
37412;DHT22;23278;52.110;6.050;2023-02-03T17:48:48;8.60;99.90
37412;DHT22;23278;52.110;6.050;2023-02-03T17:51:20;8.50;99.90
37412;DHT22;23278;52.110;6.050;2023-02-03T17:53:47;8.50;99.90
37412;DHT22;23278;52.110;6.050;2023-02-03T17:56:24;8.40;99.90
37412;DHT22;23278;52.110;6.050;2023-02-03T17:58:58;8.40;99.90
37412;DHT22;23278;52.110;6.050;2023-02-03T18:01:25;8.30;99.90
37412;DHT22;23278;52.110;6.050;2023-02-03T18:03:54;8.30;99.90
37412;DHT22;23278;52.110;6.050;2023-02-03T18:06:22;8.30;99.90
37412;DHT22;23278;52.110;6.050;2023-02-03T18:08:48;8.20;99.90
37412;DHT22;23278;52.110;6.050;2023-02-03T18:11:15;8.20;99.90
37412;DHT22;23278;52.110;6.050;2023-02-03T18:13:44;8.10;99.90
37412;DHT22;23278;52.110;6.050;2023-02-03T18:16:16;8.10;99.90
37412;DHT22;23278;52.110;6.050;2023-02-03T18:18:43;8.10;99.90
37412;DHT22;23278;52.110;6.050;2023-02-03T18:21:12;8.00;99.90
37412;DHT22;23278;52.110;6.050;2023-02-03T18:23:39;8.00;99.90
37412;DHT22;23278;52.110;6.050;2023-02-03T18:26:09;8.00;99.90
37412;DHT22;23278;52.110;6.050;2023-02-03T18:28:36;8.10;99.90
37412;DHT22;23278;52.110;6.050;2023-02-03T18:31:13;8.10;99.90